Time;durP1;ratioP1;P1;durP2;ratioP2;P2;SDS_P1;SDS_P2;PMS_P1;PMS_P2;Temp;Humidity;BMP_temperature;BMP_pressure;BME280_temperature;BME280_humidity;BME280_pressure;Samples;Min_cycle;Max_cycle;Signal;HPM_P1;HPM_P2
2022/06/05 00:02:40;;;;;;;6.15;5.55;;;18.20;68.20;;;;;;5021249;28;20044;-75
2022/06/05 00:05:15;;;;;;;5.50;5.00;;;18.10;68.90;;;;;;5011390;28;20040;-75
2022/06/05 00:07:59;;;;;;;5.30;4.80;;;18.10;68.80;;;;;;5006558;28;20029;-76
2022/06/05 00:10:33;;;;;;;5.63;5.05;;;18.00;68.90;;;;;;5033799;28;20049;-75
2022/06/05 00:13:33;;;;;;;5.28;4.80;;;18.00;69.00;;;;;;5000011;28;20036;-75
2022/06/05 00:15:59;;;;;;;5.55;5.05;;;18.00;69.20;;;;;;5013214;28;20025;-75
2022/06/05 00:18:24;;;;;;;4.85;4.45;;;17.90;69.20;;;;;;5054081;28;20442;-75
2022/06/05 00:20:50;;;;;;;4.93;4.40;;;17.90;69.40;;;;;;5020838;28;20543;-74
2022/06/05 00:23:15;;;;;;;5.05;4.63;;;17.90;70.30;;;;;;4995611;28;20112;-74
2022/06/05 00:26:04;;;;;;;5.35;4.93;;;17.80;69.60;;;;;;5052244;28;20037;-75
2022/06/05 00:28:41;;;;;;;5.68;4.57;;;17.80;69.80;;;;;;5001558;28;20054;-75
2022/06/05 00:31:22;;;;;;;4.57;4.18;;;17.80;70.00;;;;;;5040070;28;20043;-75
2022/06/05 00:33:47;;;;;;;5.63;5.03;;;17.70;70.50;;;;;;5038578;28;20110;-77
2022/06/05 00:36:18;;;;;;;5.28;4.80;;;17.70;70.20;;;;;;5037688;28;20041;-75
2022/06/05 00:39:05;;;;;;;5.97;5.38;;;17.70;70.70;;;;;;5006652;28;20036;-75
2022/06/05 00:41:54;;;;;;;4.25;3.90;;;17.70;71.50;;;;;;5053764;28;20157;-74
2022/06/05 00:44:33;;;;;;;5.15;4.43;;;17.60;70.90;;;;;;5025938;28;20032;-75
2022/06/05 00:46:59;;;;;;;4.70;4.22;;;17.60;71.10;;;;;;5029047;28;20589;-74
2022/06/05 00:49:27;;;;;;;4.47;4.07;;;17.60;70.90;;;;;;5037930;28;20704;-74
2022/06/05 00:51:52;;;;;;;5.13;4.72;;;17.50;70.90;;;;;;5028834;28;20106;-75
2022/06/05 00:54:18;;;;;;;4.65;4.25;;;17.50;71.00;;;;;;5052522;28;20040;-75
2022/06/05 00:56:43;;;;;;;5.18;4.78;;;17.50;71.10;;;;;;5018429;28;20380;-75
2022/06/05 00:59:10;;;;;;;4.55;4.18;;;17.50;71.20;;;;;;5004032;28;20033;-74
2022/06/05 01:01:36;;;;;;;4.95;4.55;;;17.50;71.40;;;;;;5019434;28;20037;-74
2022/06/05 01:04:02;;;;;;;5.60;5.10;;;17.40;71.40;;;;;;5029305;28;20089;-76
2022/06/05 01:06:29;;;;;;;4.50;4.20;;;17.40;71.60;;;;;;5011035;28;20911;-74
2022/06/05 01:08:54;;;;;;;6.10;5.00;;;17.40;71.80;;;;;;5018911;28;20128;-75
2022/06/05 01:11:28;;;;;;;4.95;4.63;;;17.40;71.80;;;;;;5027774;28;20111;-76
2022/06/05 01:14:48;;;;;;;4.50;4.10;;;17.30;72.00;;;;;;4999155;28;20551;-76
2022/06/05 01:17:22;;;;;;;5.55;4.70;;;17.30;72.30;;;;;;4893026;29;20119;-75
2022/06/05 01:19:55;;;;;;;5.05;4.65;;;17.30;72.10;;;;;;5024131;28;20501;-74
2022/06/05 01:22:45;;;;;;;5.07;4.68;;;17.30;72.20;;;;;;5012037;28;20055;-74
2022/06/05 01:25:17;;;;;;;4.97;4.55;;;17.30;72.60;;;;;;5037116;28;20038;-75
2022/06/05 01:27:48;;;;;;;5.13;4.65;;;17.30;72.20;;;;;;5038393;28;20025;-75
2022/06/05 01:30:17;;;;;;;5.00;4.60;;;17.20;72.10;;;;;;5013587;28;20123;-75
2022/06/05 01:32:50;;;;;;;4.50;4.10;;;17.20;72.20;;;;;;5022460;28;20087;-75
2022/06/05 01:35:31;;;;;;;5.75;5.15;;;17.20;72.10;;;;;;5019843;28;20054;-76
2022/06/05 01:38:00;;;;;;;5.40;4.55;;;17.20;72.30;;;;;;4990412;28;20465;-74
2022/06/05 01:40:34;;;;;;;5.38;4.85;;;17.20;72.30;;;;;;5008124;28;20033;-75
2022/06/05 01:43:03;;;;;;;5.00;4.60;;;17.20;72.40;;;;;;4994644;28;20075;-74
2022/06/05 01:45:41;;;;;;;7.00;4.75;;;17.20;72.30;;;;;;5024131;28;20032;-75
2022/06/05 01:48:07;;;;;;;6.63;4.70;;;17.20;72.50;;;;;;5034415;28;20052;-74
2022/06/05 01:50:43;;;;;;;5.50;4.50;;;17.20;72.30;;;;;;5004650;28;20029;-75
2022/06/05 01:53:30;;;;;;;4.53;4.13;;;17.10;72.50;;;;;;5045733;28;20029;-75
2022/06/05 01:56:00;;;;;;;4.82;4.43;;;17.10;72.60;;;;;;5004998;28;20033;-74
2022/06/05 01:58:40;;;;;;;5.05;4.63;;;17.10;72.30;;;;;;4999805;28;20036;-74
2022/06/05 02:01:12;;;;;;;4.32;3.92;;;17.10;72.50;;;;;;5012949;28;20037;-74
2022/06/05 02:04:08;;;;;;;4.45;4.15;;;17.00;72.30;;;;;;5008522;28;20053;-74
2022/06/05 02:06:37;;;;;;;4.60;3.92;;;17.10;72.40;;;;;;5025171;28;20051;-74
2022/06/05 02:09:11;;;;;;;4.60;4.30;;;17.00;72.20;;;;;;5034126;28;20036;-74
2022/06/05 02:11:36;;;;;;;4.65;4.25;;;17.00;72.30;;;;;;5032646;28;20120;-74
2022/06/05 02:14:04;;;;;;;4.55;4.15;;;17.00;72.30;;;;;;5019060;28;20103;-74
2022/06/05 02:16:30;;;;;;;4.88;4.43;;;17.00;72.30;;;;;;5035520;28;20142;-74
2022/06/05 02:18:57;;;;;;;4.55;4.20;;;16.90;72.30;;;;;;5008895;28;20140;-74
2022/06/05 02:21:23;;;;;;;4.97;4.47;;;16.90;72.30;;;;;;5003648;28;20765;-74
2022/06/05 02:23:48;;;;;;;5.15;4.75;;;16.90;72.40;;;;;;5011688;28;20029;-75
2022/06/05 02:26:14;;;;;;;4.88;4.40;;;16.90;72.40;;;;;;5022203;28;20025;-74
2022/06/05 02:28:39;;;;;;;4.50;4.10;;;16.90;72.60;;;;;;5024820;28;20031;-74
2022/06/05 02:31:11;;;;;;;4.75;4.32;;;16.80;72.60;;;;;;5001745;28;20025;-74
2022/06/05 02:34:00;;;;;;;4.70;4.22;;;16.80;72.70;;;;;;5033000;28;20116;-74
2022/06/05 02:36:31;;;;;;;4.88;4.30;;;16.80;73.10;;;;;;5015922;28;20025;-74
2022/06/05 02:39:15;;;;;;;4.40;4.03;;;16.70;72.70;;;;;;5052678;28;20040;-74
2022/06/05 02:41:54;;;;;;;4.93;4.53;;;16.70;73.10;;;;;;5056064;28;20025;-74
2022/06/05 02:44:38;;;;;;;4.35;4.05;;;16.70;72.90;;;;;;5020167;28;20039;-74
2022/06/05 02:47:17;;;;;;;5.18;4.65;;;16.70;72.80;;;;;;5048451;28;20075;-74
2022/06/05 02:49:55;;;;;;;4.55;4.15;;;16.70;73.10;;;;;;5056756;28;20032;-74
2022/06/05 02:52:21;;;;;;;5.30;4.80;;;16.70;73.10;;;;;;5038317;28;20036;-74
2022/06/05 02:55:07;;;;;;;8.23;4.82;;;16.70;72.90;;;;;;5023004;28;20025;-74
2022/06/05 02:57:33;;;;;;;6.10;5.50;;;16.60;73.30;;;;;;5009393;28;20043;-74
2022/06/05 02:59:58;;;;;;;6.13;4.43;;;16.60;72.90;;;;;;5055335;28;20036;-74
2022/06/05 03:05:08;;;;;;;6.15;5.05;;;16.50;73.00;;;;;;5015190;28;20393;-74
2022/06/05 03:07:34;;;;;;;5.47;5.05;;;16.50;73.10;;;;;;5025268;28;20029;-74
2022/06/05 03:09:59;;;;;;;5.32;4.82;;;16.50;73.10;;;;;;5039631;28;20064;-74
2022/06/05 03:12:25;;;;;;;5.78;5.28;;;16.50;73.20;;;;;;5027606;28;20548;-74
2022/06/05 03:14:50;;;;;;;5.50;5.05;;;16.50;73.20;;;;;;5042103;28;20025;-74
2022/06/05 03:17:16;;;;;;;6.00;5.28;;;16.40;73.20;;;;;;5034921;28;20048;-74
2022/06/05 03:19:42;;;;;;;5.00;4.60;;;16.40;73.30;;;;;;5029165;28;20036;-74
2022/06/05 03:22:08;;;;;;;5.85;5.20;;;16.40;73.40;;;;;;5011999;28;20033;-74
2022/06/05 03:24:33;;;;;;;5.25;4.75;;;16.40;73.40;;;;;;5022660;28;20115;-74
2022/06/05 03:26:59;;;;;;;5.68;4.32;;;16.30;73.40;;;;;;5021159;28;20037;-74
2022/06/05 03:29:24;;;;;;;5.28;4.78;;;16.30;73.40;;;;;;5047126;28;20030;-74
2022/06/05 03:31:50;;;;;;;7.95;4.68;;;16.30;73.50;;;;;;5036015;28;20048;-76
2022/06/05 03:34:16;;;;;;;5.70;5.25;;;16.30;73.50;;;;;;5019810;28;20474;-74
2022/06/05 03:36:43;;;;;;;4.95;4.55;;;16.30;73.60;;;;;;4986212;28;20037;-74
2022/06/05 03:39:09;;;;;;;5.53;4.75;;;16.30;73.60;;;;;;5066289;28;20029;-74
2022/06/05 03:41:35;;;;;;;5.93;5.18;;;16.20;73.60;;;;;;5017530;28;20037;-75
2022/06/05 03:44:01;;;;;;;8.20;6.18;;;16.20;73.70;;;;;;5009404;28;20829;-76
2022/06/05 03:46:26;;;;;;;8.57;5.75;;;16.20;73.90;;;;;;5036621;28;20075;-75
2022/06/05 03:48:52;;;;;;;6.28;5.72;;;16.20;73.90;;;;;;5005796;28;20112;-75
2022/06/05 03:51:19;;;;;;;6.80;6.10;;;16.20;74.00;;;;;;5008755;28;20445;-74
2022/06/05 03:53:45;;;;;;;6.60;6.00;;;16.20;74.20;;;;;;4989257;28;20049;-75
2022/06/05 03:56:12;;;;;;;7.65;5.72;;;16.20;74.10;;;;;;5029164;28;20112;-75
2022/06/05 03:58:37;;;;;;;7.10;5.90;;;16.20;74.20;;;;;;5020105;28;20056;-76
2022/06/05 04:01:06;;;;;;;6.63;6.03;;;16.20;74.40;;;;;;5024097;28;20839;-76
2022/06/05 04:03:31;;;;;;;8.73;5.88;;;16.20;74.60;;;;;;5001025;28;20073;-75
2022/06/05 04:05:57;;;;;;;7.43;6.68;;;16.20;74.70;;;;;;5035165;28;20079;-75
2022/06/05 04:08:22;;;;;;;5.90;5.40;;;16.20;74.80;;;;;;4991435;28;20441;-74
2022/06/05 04:10:48;;;;;;;6.57;5.97;;;16.20;74.90;;;;;;5020969;28;20029;-74
2022/06/05 04:13:13;;;;;;;6.80;6.03;;;16.20;75.20;;;;;;5026380;28;20082;-75
2022/06/05 04:15:39;;;;;;;8.73;7.15;;;16.20;75.30;;;;;;5002686;28;20449;-75
2022/06/05 04:18:05;;;;;;;9.50;6.88;;;16.20;75.50;;;;;;5032821;28;20657;-75
2022/06/05 04:20:32;;;;;;;8.75;7.95;;;16.20;75.80;;;;;;5004096;28;20033;-75
2022/06/05 04:22:58;;;;;;;9.07;8.18;;;16.30;75.90;;;;;;5025249;28;20055;-75
2022/06/05 04:25:23;;;;;;;9.88;8.35;;;16.30;76.20;;;;;;5024028;28;20468;-75
2022/06/05 04:27:49;;;;;;;9.13;7.97;;;16.30;76.50;;;;;;5011032;28;20518;-75
2022/06/05 04:30:14;;;;;;;8.85;8.05;;;16.30;76.70;;;;;;4987491;28;20163;-76
2022/06/05 04:32:40;;;;;;;8.68;7.88;;;16.40;76.80;;;;;;5040669;28;20048;-75
2022/06/05 04:35:06;;;;;;;8.88;7.97;;;16.40;77.00;;;;;;5023059;28;20036;-76
2022/06/05 04:37:33;;;;;;;9.27;8.38;;;16.40;77.00;;;;;;5010912;28;20650;-78
2022/06/05 04:39:58;;;;;;;9.98;8.35;;;16.50;77.20;;;;;;5008178;28;20024;-75
2022/06/05 04:42:24;;;;;;;12.15;7.47;;;16.50;77.40;;;;;;5020691;28;20045;-74
2022/06/05 04:44:49;;;;;;;8.82;7.90;;;16.60;77.40;;;;;;5008373;28;20070;-75
2022/06/05 04:47:15;;;;;;;8.68;7.72;;;16.60;77.40;;;;;;5022857;28;20037;-75
2022/06/05 04:49:40;;;;;;;11.23;7.93;;;16.70;77.40;;;;;;5024622;28;20033;-77
2022/06/05 04:52:06;;;;;;;10.80;8.52;;;16.70;77.60;;;;;;4989845;28;20080;-75
2022/06/05 04:54:31;;;;;;;9.30;8.38;;;16.70;77.60;;;;;;5018842;28;20428;-74
2022/06/05 04:56:57;;;;;;;9.38;8.10;;;16.80;77.60;;;;;;5022241;28;20112;-75
2022/06/05 04:59:22;;;;;;;10.63;8.88;;;16.80;77.70;;;;;;5000862;28;20157;-75
2022/06/05 05:01:48;;;;;;;8.50;7.70;;;16.80;77.70;;;;;;5030881;28;20041;-75
2022/06/05 05:04:14;;;;;;;9.05;8.02;;;16.90;77.70;;;;;;5030938;28;20067;-74
2022/06/05 05:06:40;;;;;;;9.10;8.27;;;16.90;77.70;;;;;;5029831;28;20046;-75
2022/06/05 05:09:06;;;;;;;9.20;7.85;;;16.90;77.60;;;;;;5016341;28;20505;-76
2022/06/05 05:11:32;;;;;;;10.70;8.02;;;16.90;77.60;;;;;;5001805;28;20057;-75
2022/06/05 05:13:57;;;;;;;9.27;7.95;;;17.00;77.60;;;;;;5027309;28;20509;-75
2022/06/05 05:16:23;;;;;;;8.93;8.00;;;17.00;77.60;;;;;;5034254;28;20063;-75
2022/06/05 05:18:49;;;;;;;10.90;8.05;;;17.00;77.60;;;;;;5001429;28;20037;-75
2022/06/05 05:21:17;;;;;;;9.07;7.47;;;17.10;77.70;;;;;;5016464;28;20036;-76
2022/06/05 05:23:43;;;;;;;10.70;7.57;;;17.10;77.60;;;;;;5009865;28;20029;-75
2022/06/05 05:26:15;;;;;;;11.63;8.20;;;17.10;77.50;;;;;;5014371;28;20044;-75
2022/06/05 05:28:41;;;;;;;8.30;7.50;;;17.20;77.60;;;;;;5019972;28;20648;-75
2022/06/05 05:31:09;;;;;;;10.65;8.10;;;17.20;77.50;;;;;;5032908;28;20555;-75
2022/06/05 05:33:34;;;;;;;9.85;8.95;;;17.30;77.60;;;;;;5021724;28;20634;-77
2022/06/05 05:36:00;;;;;;;8.73;7.78;;;17.30;77.60;;;;;;5053945;28;20054;-76
2022/06/05 05:38:25;;;;;;;9.38;8.43;;;17.30;77.50;;;;;;5038326;28;20067;-75
2022/06/05 05:43:35;;;;;;;8.85;7.75;;;17.40;77.40;;;;;;5029719;28;20666;-75
2022/06/05 05:46:00;;;;;;;8.25;7.45;;;17.50;77.50;;;;;;5018175;28;20032;-75
2022/06/05 05:48:26;;;;;;;9.25;7.90;;;17.50;77.40;;;;;;5037586;28;20045;-76
2022/06/05 05:50:51;;;;;;;8.85;7.75;;;17.60;77.50;;;;;;5019969;28;20063;-75
2022/06/05 05:53:17;;;;;;;9.63;8.18;;;17.60;77.40;;;;;;5041217;28;20100;-76
2022/06/05 05:55:42;;;;;;;12.10;7.65;;;17.60;77.30;;;;;;5019196;28;20022;-76
2022/06/05 05:58:08;;;;;;;9.60;7.97;;;17.70;77.30;;;;;;5015221;28;20033;-76
2022/06/05 06:00:34;;;;;;;8.45;7.65;;;17.70;77.20;;;;;;5022585;28;20024;-76
2022/06/05 06:02:59;;;;;;;12.85;7.78;;;17.70;77.10;;;;;;5019825;28;20492;-75
2022/06/05 06:05:25;;;;;;;7.97;7.28;;;17.80;77.00;;;;;;5035178;28;20665;-76
2022/06/05 06:07:51;;;;;;;9.27;6.93;;;17.80;76.80;;;;;;5005346;28;20043;-76
2022/06/05 06:10:16;;;;;;;11.18;7.15;;;17.80;76.80;;;;;;5025751;28;20103;-77
2022/06/05 06:12:42;;;;;;;7.30;6.20;;;17.90;76.80;;;;;;4987294;28;20069;-77
2022/06/05 06:15:08;;;;;;;8.25;7.50;;;17.90;76.80;;;;;;5021127;28;20168;-75
2022/06/05 06:17:34;;;;;;;7.55;6.85;;;18.00;76.60;;;;;;5012703;28;20109;-77
2022/06/05 06:19:59;;;;;;;11.23;7.32;;;18.00;76.70;;;;;;5022986;28;20116;-76
2022/06/05 06:22:25;;;;;;;7.85;7.05;;;18.00;76.50;;;;;;5042941;28;20053;-75
2022/06/05 06:24:50;;;;;;;7.60;6.80;;;18.10;76.60;;;;;;5055288;28;20037;-76
2022/06/05 06:27:16;;;;;;;7.60;6.90;;;18.10;76.50;;;;;;5037201;28;20033;-75
2022/06/05 06:29:41;;;;;;;8.88;7.38;;;18.10;76.30;;;;;;5001295;28;20476;-76
2022/06/05 06:32:07;;;;;;;8.40;7.45;;;18.20;76.30;;;;;;5026617;28;20417;-76
2022/06/05 06:34:33;;;;;;;8.23;7.50;;;18.20;76.40;;;;;;5023018;28;20037;-77
2022/06/05 06:36:58;;;;;;;8.35;7.55;;;18.30;76.30;;;;;;5039583;28;20041;-76
2022/06/05 06:39:24;;;;;;;8.27;7.55;;;18.30;76.10;;;;;;5016189;28;20030;-77
2022/06/05 06:41:49;;;;;;;8.05;7.30;;;18.40;76.10;;;;;;5036209;28;20040;-75
2022/06/05 06:44:15;;;;;;;7.38;6.68;;;18.40;76.00;;;;;;5020754;28;20524;-75
2022/06/05 06:46:41;;;;;;;8.35;7.20;;;18.40;75.80;;;;;;5022016;28;20072;-75
2022/06/05 06:49:07;;;;;;;12.75;8.32;;;18.40;75.80;;;;;;5007605;28;20045;-75
2022/06/05 06:51:32;;;;;;;8.63;7.60;;;18.50;75.70;;;;;;5027375;28;20401;-77
2022/06/05 06:53:58;;;;;;;10.43;7.88;;;18.50;75.70;;;;;;5032902;28;20061;-76
2022/06/05 06:56:26;;;;;;;8.30;7.50;;;18.60;75.70;;;;;;5055993;28;20120;-76
2022/06/05 06:58:52;;;;;;;7.75;7.05;;;18.60;75.70;;;;;;4992119;28;20036;-77
2022/06/05 07:01:17;;;;;;;8.50;7.45;;;18.60;75.60;;;;;;5036781;28;20032;-76
2022/06/05 07:03:43;;;;;;;8.18;7.38;;;18.60;75.50;;;;;;5009268;28;20041;-76
2022/06/05 07:06:11;;;;;;;9.52;8.18;;;18.70;75.50;;;;;;5025944;28;20021;-76
2022/06/05 07:08:36;;;;;;;7.43;6.72;;;18.70;75.60;;;;;;5014527;28;20052;-76
2022/06/05 07:11:05;;;;;;;8.52;7.45;;;18.70;75.60;;;;;;5008316;28;20028;-75
2022/06/05 07:13:30;;;;;;;7.57;6.97;;;18.80;75.50;;;;;;5032907;28;20035;-76
2022/06/05 07:15:56;;;;;;;8.00;7.30;;;18.80;75.60;;;;;;5010663;28;20109;-76
2022/06/05 07:18:21;;;;;;;10.88;9.25;;;18.80;75.60;;;;;;5027857;28;20067;-76
2022/06/05 07:20:47;;;;;;;8.35;7.55;;;18.80;75.60;;;;;;5010379;28;20120;-76
2022/06/05 07:23:13;;;;;;;9.82;7.63;;;18.80;75.70;;;;;;5019598;28;20111;-76
2022/06/05 07:25:38;;;;;;;9.20;8.05;;;18.80;75.90;;;;;;5028817;28;20107;-76
2022/06/05 07:28:04;;;;;;;8.23;7.45;;;18.80;75.90;;;;;;5021888;28;20049;-76
2022/06/05 07:30:31;;;;;;;8.75;7.85;;;18.90;76.00;;;;;;5024375;28;20572;-75
2022/06/05 07:32:56;;;;;;;8.10;7.30;;;18.90;76.00;;;;;;5026321;28;20041;-75
2022/06/05 07:35:22;;;;;;;7.90;6.13;;;18.90;76.10;;;;;;5041109;28;20036;-75
2022/06/05 07:37:47;;;;;;;7.22;6.53;;;18.90;76.10;;;;;;5037295;28;20211;-76
2022/06/05 07:40:13;;;;;;;8.15;7.35;;;18.90;75.90;;;;;;5015757;28;20025;-76
2022/06/05 07:42:40;;;;;;;9.30;6.60;;;18.90;75.90;;;;;;5007920;28;20552;-75
2022/06/05 07:45:06;;;;;;;7.57;6.78;;;18.90;76.00;;;;;;5023097;28;20531;-77
2022/06/05 07:47:32;;;;;;;7.75;6.97;;;18.90;76.90;;;;;;5027457;28;20568;-76
2022/06/05 07:49:57;;;;;;;7.55;6.85;;;18.90;76.00;;;;;;5006814;28;20140;-74
2022/06/05 07:55:07;;;;;;;8.35;7.55;;;18.90;75.80;;;;;;5024476;28;20478;-75
2022/06/05 07:57:33;;;;;;;9.98;8.02;;;18.90;75.90;;;;;;4989291;28;20033;-76
2022/06/05 07:59:58;;;;;;;13.13;8.18;;;18.90;75.90;;;;;;5021289;28;20076;-75
2022/06/05 08:02:27;;;;;;;11.18;8.48;;;18.90;76.00;;;;;;5054384;28;20722;-75
2022/06/05 08:04:53;;;;;;;9.30;8.27;;;18.90;76.00;;;;;;5007596;28;20139;-76
2022/06/05 08:07:21;;;;;;;9.30;7.90;;;18.90;76.10;;;;;;5019070;28;20090;-74
2022/06/05 08:09:47;;;;;;;10.20;7.25;;;18.90;76.20;;;;;;5028799;28;20049;-75
2022/06/05 08:12:14;;;;;;;7.93;7.22;;;18.90;76.10;;;;;;5020497;28;20660;-74
2022/06/05 08:14:41;;;;;;;8.75;7.85;;;18.90;76.40;;;;;;5043985;28;20033;-75
2022/06/05 08:17:09;;;;;;;8.68;7.63;;;18.90;76.40;;;;;;5006827;28;20056;-73
2022/06/05 08:19:34;;;;;;;8.90;7.88;;;18.90;76.50;;;;;;5007248;28;20033;-75
2022/06/05 08:22:00;;;;;;;8.93;8.07;;;19.00;76.70;;;;;;5030544;28;20037;-73
2022/06/05 08:24:25;;;;;;;8.68;7.97;;;19.00;76.80;;;;;;5024764;28;20037;-75
2022/06/05 08:26:51;;;;;;;9.75;8.25;;;19.00;77.00;;;;;;5038157;28;20063;-75
2022/06/05 08:29:17;;;;;;;9.98;8.55;;;19.00;77.00;;;;;;5020004;28;20041;-74
2022/06/05 08:31:43;;;;;;;8.93;8.02;;;19.00;77.20;;;;;;5022508;28;20087;-74
2022/06/05 08:34:09;;;;;;;8.90;7.95;;;19.00;77.40;;;;;;5005573;28;20057;-75
2022/06/05 08:36:34;;;;;;;9.50;8.60;;;19.00;77.40;;;;;;5025808;28;20145;-74
2022/06/05 08:41:47;;;;;;;8.98;8.07;;;19.00;77.50;;;;;;5049741;28;20098;-74
2022/06/05 08:44:27;;;;;;;8.40;7.60;;;19.00;77.50;;;;;;5034935;28;20053;-75
2022/06/05 08:47:06;;;;;;;8.73;7.88;;;19.00;78.30;;;;;;5023752;28;20036;-75
2022/06/05 08:50:12;;;;;;;9.05;8.20;;;19.00;77.30;;;;;;5025688;28;20041;-73
2022/06/05 08:52:50;;;;;;;8.32;7.63;;;19.00;77.80;;;;;;5013450;28;20039;-75
2022/06/05 08:55:21;;;;;;;8.95;8.10;;;19.10;77.70;;;;;;5010797;28;20036;-75
2022/06/05 08:57:51;;;;;;;8.40;7.60;;;19.10;77.50;;;;;;5025932;28;20041;-74
2022/06/05 09:00:44;;;;;;;8.13;7.33;;;19.00;77.40;;;;;;5027644;28;20043;-75
2022/06/05 09:03:24;;;;;;;7.00;6.38;;;19.10;77.90;;;;;;5023598;28;20029;-75
2022/06/05 09:05:54;;;;;;;8.15;7.35;;;19.10;77.40;;;;;;5029290;28;20037;-75
2022/06/05 09:08:21;;;;;;;9.10;7.20;;;19.20;77.40;;;;;;5017023;28;20583;-74
2022/06/05 09:10:51;;;;;;;8.40;7.65;;;19.20;77.50;;;;;;5022319;28;20139;-75
2022/06/05 09:13:35;;;;;;;8.00;7.20;;;19.30;77.60;;;;;;5026442;28;20079;-75
2022/06/05 09:16:15;;;;;;;7.82;7.13;;;19.30;77.60;;;;;;5015898;28;20114;-74
2022/06/05 09:18:45;;;;;;;8.13;7.37;;;19.40;77.60;;;;;;4997308;28;20077;-74
2022/06/05 09:21:31;;;;;;;9.35;7.05;;;19.40;77.60;;;;;;4996671;28;20038;-74
2022/06/05 09:24:04;;;;;;;8.90;8.00;;;19.50;78.10;;;;;;5012133;28;20042;-74
2022/06/05 09:26:40;;;;;;;8.07;7.38;;;19.50;77.60;;;;;;5004387;28;20037;-75
2022/06/05 09:29:34;;;;;;;10.57;7.93;;;19.60;77.90;;;;;;4992730;28;20034;-75
2022/06/05 09:32:27;;;;;;;8.30;7.30;;;19.70;78.10;;;;;;5009978;28;20037;-75
2022/06/05 09:34:57;;;;;;;6.88;6.15;;;19.70;78.00;;;;;;4989912;28;20042;-74
2022/06/05 09:37:26;;;;;;;8.43;7.40;;;19.80;77.50;;;;;;4985641;28;20071;-76
2022/06/05 09:40:12;;;;;;;8.00;7.20;;;19.80;77.40;;;;;;4989279;28;20030;-75
2022/06/05 09:43:15;;;;;;;9.20;7.13;;;19.90;77.60;;;;;;4993600;28;20526;-75
2022/06/05 09:45:41;;;;;;;7.55;6.85;;;19.90;77.70;;;;;;4987616;28;20131;-76
2022/06/05 09:48:33;;;;;;;8.52;7.32;;;19.90;77.20;;;;;;5020322;28;20112;-75
2022/06/05 09:50:59;;;;;;;7.97;6.70;;;20.00;77.50;;;;;;5014247;28;20502;-75
2022/06/05 09:53:31;;;;;;;8.13;7.13;;;20.00;77.30;;;;;;5005647;28;20040;-75
2022/06/05 09:56:15;;;;;;;7.93;6.90;;;20.00;77.30;;;;;;4993462;28;20037;-74
2022/06/05 09:58:44;;;;;;;9.15;7.25;;;20.00;77.20;;;;;;5004295;28;20081;-75
2022/06/05 10:01:24;;;;;;;7.43;6.75;;;20.10;77.30;;;;;;5014896;28;20150;-75
2022/06/05 10:03:50;;;;;;;8.20;7.40;;;20.00;77.60;;;;;;4997128;28;21540;-74
2022/06/05 10:06:42;;;;;;;8.10;6.75;;;20.10;77.20;;;;;;4985181;28;20652;-75
2022/06/05 10:09:10;;;;;;;7.40;6.70;;;20.10;77.20;;;;;;5002811;28;20038;-74
2022/06/05 10:11:49;;;;;;;6.68;6.07;;;20.10;77.10;;;;;;5027837;28;20040;-75
2022/06/05 10:14:30;;;;;;;7.80;6.40;;;20.10;77.20;;;;;;4997554;28;21321;-73
2022/06/05 10:17:20;;;;;;;9.50;6.85;;;20.20;77.10;;;;;;5012195;28;20052;-73
2022/06/05 10:20:04;;;;;;;13.05;7.20;;;20.20;77.20;;;;;;5038211;28;20119;-74
2022/06/05 10:22:42;;;;;;;7.43;6.70;;;20.20;77.00;;;;;;5027317;28;20041;-74
2022/06/05 10:25:35;;;;;;;7.43;6.72;;;20.20;77.00;;;;;;5002314;28;20501;-74
2022/06/05 10:28:03;;;;;;;8.82;6.57;;;20.20;77.50;;;;;;5010984;28;20037;-74
2022/06/05 10:31:01;;;;;;;7.18;6.57;;;20.30;77.30;;;;;;5036792;28;20037;-75
2022/06/05 10:33:56;;;;;;;9.38;6.75;;;20.30;78.30;;;;;;5050236;28;20042;-74
2022/06/05 10:36:22;;;;;;;7.20;6.50;;;20.30;78.20;;;;;;5024255;28;20136;-74
2022/06/05 10:38:59;;;;;;;9.40;7.03;;;20.30;77.60;;;;;;5017975;28;20064;-73
2022/06/05 10:41:53;;;;;;;7.38;6.68;;;20.30;77.90;;;;;;5022078;28;20035;-74
2022/06/05 10:44:38;;;;;;;7.38;6.72;;;20.40;78.10;;;;;;5024213;28;20024;-74
2022/06/05 10:47:16;;;;;;;6.97;6.38;;;20.40;78.30;;;;;;5019703;28;20084;-75
2022/06/05 10:50:03;;;;;;;7.28;6.43;;;20.50;78.10;;;;;;5003507;28;20078;-74
2022/06/05 10:52:32;;;;;;;7.63;6.93;;;20.50;78.30;;;;;;5043273;28;20421;-74
2022/06/05 10:55:38;;;;;;;6.63;6.05;;;20.60;77.80;;;;;;5021934;28;20037;-74
2022/06/05 10:58:38;;;;;;;9.88;7.70;;;20.60;78.00;;;;;;4989057;28;20444;-74
2022/06/05 11:01:12;;;;;;;10.27;7.30;;;20.70;78.10;;;;;;5008981;28;20033;-75
2022/06/05 11:04:06;;;;;;;9.85;7.97;;;20.80;77.90;;;;;;5043288;28;20121;-73
2022/06/05 11:06:36;;;;;;;6.80;6.15;;;20.80;77.90;;;;;;5030872;28;20033;-74
2022/06/05 11:09:17;;;;;;;7.28;6.50;;;20.90;77.60;;;;;;5017590;28;20098;-75
2022/06/05 11:15:08;;;;;;;7.43;5.95;;;21.00;77.30;;;;;;5005571;28;20459;-74
2022/06/05 11:17:41;;;;;;;9.80;6.45;;;21.10;77.40;;;;;;5000508;28;20063;-75
2022/06/05 11:20:15;;;;;;;10.73;5.90;;;21.10;76.90;;;;;;4994215;28;20752;-75
2022/06/05 11:23:03;;;;;;;6.60;6.10;;;21.20;76.80;;;;;;4987376;28;20057;-76
2022/06/05 11:25:31;;;;;;;7.38;5.80;;;21.30;76.50;;;;;;5009015;28;20816;-75
2022/06/05 11:27:59;;;;;;;6.75;6.13;;;21.40;76.40;;;;;;5000776;28;20046;-75
2022/06/05 11:30:41;;;;;;;6.35;5.85;;;21.50;76.10;;;;;;5017316;28;20041;-76
2022/06/05 11:33:16;;;;;;;6.93;6.32;;;21.50;76.00;;;;;;5013597;28;20041;-75
2022/06/05 11:35:57;;;;;;;6.07;5.57;;;21.60;75.80;;;;;;4998444;28;20033;-77
2022/06/05 11:38:46;;;;;;;7.45;6.28;;;21.70;75.70;;;;;;5001493;28;20030;-76
2022/06/05 11:41:29;;;;;;;6.28;5.78;;;21.90;75.90;;;;;;4991126;28;20072;-76
2022/06/05 11:44:14;;;;;;;6.72;5.00;;;22.00;75.40;;;;;;4995528;28;20045;-76
2022/06/05 11:46:51;;;;;;;6.70;5.85;;;22.20;75.40;;;;;;4982120;28;20085;-75
2022/06/05 11:49:22;;;;;;;6.35;5.60;;;22.30;74.80;;;;;;5008290;28;20187;-76
2022/06/05 11:52:18;;;;;;;7.65;6.05;;;22.40;74.50;;;;;;4974092;28;20041;-76
2022/06/05 11:55:11;;;;;;;7.03;6.32;;;22.50;74.00;;;;;;4988707;28;20661;-76
2022/06/05 11:57:41;;;;;;;7.78;6.00;;;22.60;73.60;;;;;;4981764;28;20031;-75
2022/06/05 12:00:20;;;;;;;5.80;5.30;;;22.60;73.50;;;;;;4981241;28;20034;-75
2022/06/05 12:02:53;;;;;;;5.80;5.30;;;22.70;73.30;;;;;;4984430;28;20035;-76
2022/06/05 12:05:31;;;;;;;6.30;4.70;;;22.80;73.10;;;;;;5016661;28;20091;-76
2022/06/05 12:08:04;;;;;;;6.43;5.22;;;22.90;72.80;;;;;;5004761;28;20045;-75
2022/06/05 12:10:29;;;;;;;5.85;4.53;;;23.00;72.50;;;;;;5005302;28;20672;-75
2022/06/05 12:13:05;;;;;;;4.65;4.25;;;23.10;72.20;;;;;;5004239;28;20125;-76
2022/06/05 12:15:49;;;;;;;6.70;5.28;;;23.20;71.80;;;;;;4995298;28;20040;-76
2022/06/05 12:18:20;;;;;;;6.50;4.72;;;23.20;71.00;;;;;;4973519;28;20049;-76
2022/06/05 12:20:53;;;;;;;5.15;4.55;;;23.20;70.90;;;;;;5011005;28;20159;-77
2022/06/05 12:23:43;;;;;;;5.15;4.45;;;23.30;70.70;;;;;;5017535;28;20136;-76
2022/06/05 12:26:38;;;;;;;5.90;4.43;;;23.40;70.50;;;;;;4996201;28;20546;-78
2022/06/05 12:29:16;;;;;;;4.95;3.95;;;23.40;69.90;;;;;;4972120;28;20038;-77
2022/06/05 12:31:48;;;;;;;4.78;4.30;;;23.50;69.80;;;;;;4998151;28;20042;-76
2022/06/05 12:34:22;;;;;;;6.15;4.53;;;23.60;69.90;;;;;;5006301;28;20034;-77
2022/06/05 12:37:14;;;;;;;8.10;4.70;;;23.80;69.70;;;;;;5000650;28;20065;-77
2022/06/05 12:39:45;;;;;;;5.45;4.30;;;24.00;69.40;;;;;;4977031;28;20086;-76
2022/06/05 12:42:38;;;;;;;4.60;4.20;;;24.20;69.10;;;;;;4994475;28;20494;-77
2022/06/05 12:45:06;;;;;;;5.03;4.30;;;24.30;68.30;;;;;;5012106;28;20646;-76
2022/06/05 12:47:39;;;;;;;6.57;5.05;;;24.40;68.40;;;;;;5019687;28;20063;-76
2022/06/05 12:50:35;;;;;;;5.68;4.10;;;24.50;68.20;;;;;;4998771;28;20045;-77
2022/06/05 12:53:31;;;;;;;4.40;4.10;;;24.50;67.70;;;;;;5031732;28;20117;-76
2022/06/05 12:56:00;;;;;;;4.30;3.72;;;24.70;67.70;;;;;;5002225;28;20143;-77
2022/06/05 12:58:51;;;;;;;6.38;5.38;;;24.80;67.50;;;;;;5013667;28;20129;-78
2022/06/05 13:01:24;;;;;;;5.03;4.28;;;24.90;66.90;;;;;;4998853;28;20030;-77
2022/06/05 13:03:56;;;;;;;7.65;4.47;;;25.10;66.70;;;;;;5011245;28;20040;-77
2022/06/05 13:07:01;;;;;;;4.43;4.03;;;25.20;66.50;;;;;;4993800;28;20034;-78
2022/06/05 13:09:41;;;;;;;5.07;3.90;;;25.30;65.90;;;;;;5026167;28;20144;-76
2022/06/05 13:12:13;;;;;;;3.67;3.22;;;25.30;65.50;;;;;;5017791;28;20033;-76
2022/06/05 13:14:45;;;;;;;3.90;3.60;;;25.40;65.60;;;;;;4998351;28;20038;-77
2022/06/05 13:17:17;;;;;;;4.32;3.90;;;25.40;65.40;;;;;;4981304;28;20058;-76
2022/06/05 13:19:56;;;;;;;4.20;3.47;;;25.50;65.20;;;;;;5025324;28;20124;-76
2022/06/05 13:22:35;;;;;;;3.47;3.10;;;25.50;64.70;;;;;;4984190;28;20144;-76
2022/06/05 13:25:15;;;;;;;3.85;3.40;;;25.60;64.40;;;;;;5001328;28;20037;-77
2022/06/05 13:27:45;;;;;;;4.72;3.15;;;25.60;64.30;;;;;;5005697;28;20030;-78